sensor_id;sensor_type;location;lat;lon;timestamp;pressure;altitude;pressure_sealevel;temperature;humidity
48614;BME280;34408;51.426;5.444;2023-05-03T00:01:29;102801.47;;;12.82;44.32
48614;BME280;34408;51.426;5.444;2023-05-03T00:03:58;102806.03;;;12.81;44.29
48614;BME280;34408;51.426;5.444;2023-05-03T00:06:26;102806.22;;;12.80;44.26
48614;BME280;34408;51.426;5.444;2023-05-03T00:08:57;102803.72;;;12.78;44.45
48614;BME280;34408;51.426;5.444;2023-05-03T00:11:24;102801.22;;;12.77;44.74
48614;BME280;34408;51.426;5.444;2023-05-03T00:13:52;102798.69;;;12.75;44.35
48614;BME280;34408;51.426;5.444;2023-05-03T00:16:20;102803.25;;;12.75;44.49
48614;BME280;34408;51.426;5.444;2023-05-03T00:18:47;102800.94;;;12.71;44.59
48614;BME280;34408;51.426;5.444;2023-05-03T00:21:17;102799.25;;;12.70;44.62
48614;BME280;34408;51.426;5.444;2023-05-03T00:23:44;102796.75;;;12.69;44.53
48614;BME280;34408;51.426;5.444;2023-05-03T00:26:12;102801.31;;;12.68;44.50
48614;BME280;34408;51.426;5.444;2023-05-03T00:28:40;102800.47;;;12.68;44.95
48614;BME280;34408;51.426;5.444;2023-05-03T00:31:09;102795.28;;;12.66;44.61
48614;BME280;34408;51.426;5.444;2023-05-03T00:33:37;102798.16;;;12.65;44.47
48614;BME280;34408;51.426;5.444;2023-05-03T00:36:07;102801.88;;;12.64;44.60
48614;BME280;34408;51.426;5.444;2023-05-03T00:38:37;102799.19;;;12.64;45.01
48614;BME280;34408;51.426;5.444;2023-05-03T00:41:05;102797.50;;;12.63;44.65
48614;BME280;34408;51.426;5.444;2023-05-03T00:43:33;102791.84;;;12.58;44.67
48614;BME280;34408;51.426;5.444;2023-05-03T00:46:05;102801.41;;;12.60;44.80
48614;BME280;34408;51.426;5.444;2023-05-03T00:48:43;102801.59;;;12.59;44.87
48614;BME280;34408;51.426;5.444;2023-05-03T00:51:12;102803.66;;;12.57;44.97
48614;BME280;34408;51.426;5.444;2023-05-03T00:53:42;102804.69;;;12.56;44.83
48614;BME280;34408;51.426;5.444;2023-05-03T00:56:10;102797.97;;;12.52;44.72
48614;BME280;34408;51.426;5.444;2023-05-03T00:58:38;102794.25;;;12.53;45.08
48614;BME280;34408;51.426;5.444;2023-05-03T01:01:06;102796.13;;;12.52;44.81
48614;BME280;34408;51.426;5.444;2023-05-03T01:03:35;102793.59;;;12.51;44.79
48614;BME280;34408;51.426;5.444;2023-05-03T01:06:11;102788.41;;;12.49;44.86
48614;BME280;34408;51.426;5.444;2023-05-03T01:08:49;102788.59;;;12.48;45.12
48614;BME280;34408;51.426;5.444;2023-05-03T01:11:22;102785.25;;;12.46;45.24
48614;BME280;34408;51.426;5.444;2023-05-03T01:13:55;102786.28;;;12.45;45.24
48614;BME280;34408;51.426;5.444;2023-05-03T01:16:30;102795.38;;;12.44;45.24
48614;BME280;34408;51.426;5.444;2023-05-03T01:19:01;102800.97;;;12.42;45.08
48614;BME280;34408;51.426;5.444;2023-05-03T01:21:31;102800.31;;;12.40;45.08
48614;BME280;34408;51.426;5.444;2023-05-03T01:24:08;102796.97;;;12.38;45.52
48614;BME280;34408;51.426;5.444;2023-05-03T01:26:39;102799.84;;;12.36;45.03
48614;BME280;34408;51.426;5.444;2023-05-03T01:29:07;102805.41;;;12.35;45.27
48614;BME280;34408;51.426;5.444;2023-05-03T01:31:39;102798.53;;;12.32;45.23
48614;BME280;34408;51.426;5.444;2023-05-03T01:34:19;102805.13;;;12.30;45.20
48614;BME280;34408;51.426;5.444;2023-05-03T01:36:48;102805.13;;;12.30;45.07
48614;BME280;34408;51.426;5.444;2023-05-03T01:39:19;102813.41;;;12.28;45.27
48614;BME280;34408;51.426;5.444;2023-05-03T01:41:49;102807.38;;;12.26;45.26
48614;BME280;34408;51.426;5.444;2023-05-03T01:44:18;102809.41;;;12.24;45.42
48614;BME280;34408;51.426;5.444;2023-05-03T01:46:46;102812.28;;;12.23;45.20
48614;BME280;34408;51.426;5.444;2023-05-03T01:49:15;102810.81;;;12.20;45.03
48614;BME280;34408;51.426;5.444;2023-05-03T01:51:42;102806.44;;;12.19;45.26
48614;BME280;34408;51.426;5.444;2023-05-03T01:54:10;102807.63;;;12.17;45.04
48614;BME280;34408;51.426;5.444;2023-05-03T01:56:38;102810.53;;;12.15;45.26
48614;BME280;34408;51.426;5.444;2023-05-03T01:59:07;102811.53;;;12.14;45.45
48614;BME280;34408;51.426;5.444;2023-05-03T02:01:36;102814.44;;;12.13;45.39
48614;BME280;34408;51.426;5.444;2023-05-03T02:04:04;102811.94;;;12.11;45.14
48614;BME280;34408;51.426;5.444;2023-05-03T02:06:31;102819.19;;;12.11;45.26
48614;BME280;34408;51.426;5.444;2023-05-03T02:08:59;102815.84;;;12.09;45.41
48614;BME280;34408;51.426;5.444;2023-05-03T02:11:27;102819.56;;;12.08;45.27
48614;BME280;34408;51.426;5.444;2023-05-03T02:13:55;102812.50;;;12.07;45.23
48614;BME280;34408;51.426;5.444;2023-05-03T02:16:24;102813.50;;;12.05;45.54
48614;BME280;34408;51.426;5.444;2023-05-03T02:18:53;102802.91;;;12.04;45.37
48614;BME280;34408;51.426;5.444;2023-05-03T02:21:24;102812.84;;;12.03;45.39
48614;BME280;34408;51.426;5.444;2023-05-03T02:23:52;102803.94;;;12.03;45.23
48614;BME280;34408;51.426;5.444;2023-05-03T02:26:20;102807.47;;;12.03;45.42
48614;BME280;34408;51.426;5.444;2023-05-03T02:28:48;102792.50;;;12.01;45.36
48614;BME280;34408;51.426;5.444;2023-05-03T02:31:15;102795.38;;;11.99;45.66
48614;BME280;34408;51.426;5.444;2023-05-03T02:33:44;102785.63;;;11.98;45.55
48614;BME280;34408;51.426;5.444;2023-05-03T02:36:12;102791.19;;;11.97;45.43
48614;BME280;34408;51.426;5.444;2023-05-03T02:38:40;102787.66;;;11.96;45.50
48614;BME280;34408;51.426;5.444;2023-05-03T02:41:08;102775.22;;;11.95;45.71
48614;BME280;34408;51.426;5.444;2023-05-03T02:43:35;102777.06;;;11.95;45.72
48614;BME280;34408;51.426;5.444;2023-05-03T02:46:03;102774.75;;;11.92;45.46
48614;BME280;34408;51.426;5.444;2023-05-03T02:48:31;102766.38;;;11.87;45.62
48614;BME280;34408;51.426;5.444;2023-05-03T02:51:01;102767.22;;;11.87;45.57
48614;BME280;34408;51.426;5.444;2023-05-03T02:53:28;102756.63;;;11.86;45.74
48614;BME280;34408;51.426;5.444;2023-05-03T02:55:56;102756.78;;;11.84;45.71
48614;BME280;34408;51.426;5.444;2023-05-03T02:58:24;102754.94;;;11.85;45.39
48614;BME280;34408;51.426;5.444;2023-05-03T03:00:52;102748.72;;;11.84;45.73
48614;BME280;34408;51.426;5.444;2023-05-03T03:03:19;102747.22;;;11.82;45.94
48614;BME280;34408;51.426;5.444;2023-05-03T03:05:47;102747.41;;;11.80;45.77
48614;BME280;34408;51.426;5.444;2023-05-03T03:08:17;102750.28;;;11.79;45.93
48614;BME280;34408;51.426;5.444;2023-05-03T03:10:44;102750.47;;;11.77;45.76
48614;BME280;34408;51.426;5.444;2023-05-03T03:13:12;102764.09;;;11.76;45.93
48614;BME280;34408;51.426;5.444;2023-05-03T03:15:40;102766.97;;;11.74;45.98
48614;BME280;34408;51.426;5.444;2023-05-03T03:18:08;102767.97;;;11.73;45.88
48614;BME280;34408;51.426;5.444;2023-05-03T03:20:36;102761.94;;;11.71;45.89
48614;BME280;34408;51.426;5.444;2023-05-03T03:23:03;102757.75;;;11.68;45.84
48614;BME280;34408;51.426;5.444;2023-05-03T03:25:33;102759.63;;;11.68;46.37
48614;BME280;34408;51.426;5.444;2023-05-03T03:28:00;102753.38;;;11.67;45.96
48614;BME280;34408;51.426;5.444;2023-05-03T03:30:28;102754.97;;;11.62;45.91
48614;BME280;34408;51.426;5.444;2023-05-03T03:32:56;102770.94;;;11.63;46.05
48614;BME280;34408;51.426;5.444;2023-05-03T03:35:24;102781.88;;;11.62;45.95
48614;BME280;34408;51.426;5.444;2023-05-03T03:37:52;102778.53;;;11.60;45.92
48614;BME280;34408;51.426;5.444;2023-05-03T03:40:20;102772.31;;;11.59;45.88
48614;BME280;34408;51.426;5.444;2023-05-03T03:42:49;102768.78;;;11.59;46.04
48614;BME280;34408;51.426;5.444;2023-05-03T03:45:17;102762.75;;;11.57;46.04
48614;BME280;34408;51.426;5.444;2023-05-03T03:47:44;102766.63;;;11.54;46.14
48614;BME280;34408;51.426;5.444;2023-05-03T03:50:12;102771.19;;;11.54;46.14
48614;BME280;34408;51.426;5.444;2023-05-03T03:52:40;102768.66;;;11.52;46.16
48614;BME280;34408;51.426;5.444;2023-05-03T03:55:09;102764.31;;;11.51;46.21
48614;BME280;34408;51.426;5.444;2023-05-03T03:57:37;102758.91;;;11.51;46.30
48614;BME280;34408;51.426;5.444;2023-05-03T04:00:07;102767.00;;;11.51;46.28
48614;BME280;34408;51.426;5.444;2023-05-03T04:02:37;102770.88;;;11.49;46.37
48614;BME280;34408;51.426;5.444;2023-05-03T04:05:05;102768.19;;;11.49;46.31
48614;BME280;34408;51.426;5.444;2023-05-03T04:07:33;102778.31;;;11.47;46.51
48614;BME280;34408;51.426;5.444;2023-05-03T04:10:01;102777.47;;;11.46;46.57
48614;BME280;34408;51.426;5.444;2023-05-03T04:12:29;102770.41;;;11.45;46.47
48614;BME280;34408;51.426;5.444;2023-05-03T04:14:57;102778.66;;;11.44;46.47
48614;BME280;34408;51.426;5.444;2023-05-03T04:17:26;102780.53;;;11.43;46.36
48614;BME280;34408;51.426;5.444;2023-05-03T04:19:54;102782.56;;;11.41;46.48
48614;BME280;34408;51.426;5.444;2023-05-03T04:22:22;102781.72;;;11.40;46.62
48614;BME280;34408;51.426;5.444;2023-05-03T04:24:50;102788.97;;;11.40;46.57
48614;BME280;34408;51.426;5.444;2023-05-03T04:27:20;102775.69;;;11.38;46.79
48614;BME280;34408;51.426;5.444;2023-05-03T04:29:47;102787.47;;;11.37;46.63
48614;BME280;34408;51.426;5.444;2023-05-03T04:32:16;102790.34;;;11.36;46.58
48614;BME280;34408;51.426;5.444;2023-05-03T04:34:50;102791.34;;;11.35;46.65
48614;BME280;34408;51.426;5.444;2023-05-03T04:37:21;102783.28;;;11.35;46.54
48614;BME280;34408;51.426;5.444;2023-05-03T04:39:48;102796.06;;;11.33;46.54
48614;BME280;34408;51.426;5.444;2023-05-03T04:42:16;102797.09;;;11.32;46.60
48614;BME280;34408;51.426;5.444;2023-05-03T04:44:44;102795.41;;;11.31;46.74
48614;BME280;34408;51.426;5.444;2023-05-03T04:47:12;102800.97;;;11.29;46.55
48614;BME280;34408;51.426;5.444;2023-05-03T04:49:40;102810.91;;;11.29;46.69
48614;BME280;34408;51.426;5.444;2023-05-03T04:52:09;102816.28;;;11.29;46.79
48614;BME280;34408;51.426;5.444;2023-05-03T04:54:36;102817.31;;;11.28;46.57
48614;BME280;34408;51.426;5.444;2023-05-03T04:57:04;102831.13;;;11.25;46.59
48614;BME280;34408;51.426;5.444;2023-05-03T04:59:32;102839.38;;;11.23;46.80
48614;BME280;34408;51.426;5.444;2023-05-03T05:02:00;102838.53;;;11.23;46.63
48614;BME280;34408;51.426;5.444;2023-05-03T05:04:28;102844.09;;;11.21;46.72
48614;BME280;34408;51.426;5.444;2023-05-03T05:06:55;102846.97;;;11.20;46.74
48614;BME280;34408;51.426;5.444;2023-05-03T05:09:27;102861.44;;;11.19;46.92
48614;BME280;34408;51.426;5.444;2023-05-03T05:11:56;102853.72;;;11.16;46.76
48614;BME280;34408;51.426;5.444;2023-05-03T05:14:25;102860.13;;;11.15;46.69
48614;BME280;34408;51.426;5.444;2023-05-03T05:16:53;102860.28;;;11.13;46.98
48614;BME280;34408;51.426;5.444;2023-05-03T05:19:21;102860.28;;;11.13;46.98
48614;BME280;34408;51.426;5.444;2023-05-03T05:21:50;102858.63;;;11.12;47.07
48614;BME280;34408;51.426;5.444;2023-05-03T05:24:17;102854.25;;;11.11;47.11
48614;BME280;34408;51.426;5.444;2023-05-03T05:26:47;102857.94;;;11.10;46.95
48614;BME280;34408;51.426;5.444;2023-05-03T05:29:15;102856.28;;;11.09;46.96
48614;BME280;34408;51.426;5.444;2023-05-03T05:31:42;102850.06;;;11.08;47.06
48614;BME280;34408;51.426;5.444;2023-05-03T05:34:10;102842.81;;;11.09;47.16
48614;BME280;34408;51.426;5.444;2023-05-03T05:36:38;102844.66;;;11.08;47.28
48614;BME280;34408;51.426;5.444;2023-05-03T05:39:06;102843.00;;;11.07;47.29
48614;BME280;34408;51.426;5.444;2023-05-03T05:41:34;102840.13;;;11.09;47.49
48614;BME280;34408;51.426;5.444;2023-05-03T05:44:04;102838.28;;;11.09;47.55
48614;BME280;34408;51.426;5.444;2023-05-03T05:46:32;102842.66;;;11.11;47.60
48614;BME280;34408;51.426;5.444;2023-05-03T05:49:00;102839.78;;;11.12;47.31
48614;BME280;34408;51.426;5.444;2023-05-03T05:51:28;102834.41;;;11.12;47.38
48614;BME280;34408;51.426;5.444;2023-05-03T05:53:56;102839.41;;;11.15;47.46
48614;BME280;34408;51.426;5.444;2023-05-03T05:56:23;102850.00;;;11.17;47.24
48614;BME280;34408;51.426;5.444;2023-05-03T05:58:51;102850.19;;;11.15;47.32
48614;BME280;34408;51.426;5.444;2023-05-03T06:01:21;102853.53;;;11.17;47.41
48614;BME280;34408;51.426;5.444;2023-05-03T06:03:48;102855.41;;;11.17;47.87
48614;BME280;34408;51.426;5.444;2023-05-03T06:06:16;102852.53;;;11.18;47.71
48614;BME280;34408;51.426;5.444;2023-05-03T06:08:44;102850.50;;;11.20;47.48
48614;BME280;34408;51.426;5.444;2023-05-03T06:11:15;102850.13;;;11.23;47.66
48614;BME280;34408;51.426;5.444;2023-05-03T06:13:43;102846.75;;;11.29;47.46
48614;BME280;34408;51.426;5.444;2023-05-03T06:16:11;102847.41;;;11.31;47.38
48614;BME280;34408;51.426;5.444;2023-05-03T06:18:40;102847.03;;;11.34;47.47
48614;BME280;34408;51.426;5.444;2023-05-03T06:21:08;102845.00;;;11.36;47.67
48614;BME280;34408;51.426;5.444;2023-05-03T06:23:36;102841.97;;;11.39;47.49
48614;BME280;34408;51.426;5.444;2023-05-03T06:26:05;102834.38;;;11.43;47.37
48614;BME280;34408;51.426;5.444;2023-05-03T06:28:35;102829.66;;;11.45;47.52
48614;BME280;34408;51.426;5.444;2023-05-03T06:31:02;102834.50;;;11.50;47.50
48614;BME280;34408;51.426;5.444;2023-05-03T06:33:30;102841.38;;;11.52;47.56
48614;BME280;34408;51.426;5.444;2023-05-03T06:35:59;102841.19;;;11.54;47.64
48614;BME280;34408;51.426;5.444;2023-05-03T06:38:27;102838.97;;;11.57;47.54
48614;BME280;34408;51.426;5.444;2023-05-03T06:40:55;102840.00;;;11.56;47.70
48614;BME280;34408;51.426;5.444;2023-05-03T06:43:23;102843.66;;;11.63;47.54
48614;BME280;34408;51.426;5.444;2023-05-03T06:45:51;102837.06;;;11.66;47.40
48614;BME280;34408;51.426;5.444;2023-05-03T06:48:19;102843.28;;;11.66;47.43
48614;BME280;34408;51.426;5.444;2023-05-03T06:50:47;102836.72;;;11.69;47.58
48614;BME280;34408;51.426;5.444;2023-05-03T06:53:16;102832.81;;;11.71;47.40
48614;BME280;34408;51.426;5.444;2023-05-03T06:55:44;102829.75;;;11.74;47.59
48614;BME280;34408;51.426;5.444;2023-05-03T06:58:12;102818.97;;;11.74;47.58
48614;BME280;34408;51.426;5.444;2023-05-03T07:00:39;102819.81;;;11.75;47.59
48614;BME280;34408;51.426;5.444;2023-05-03T07:03:07;102818.97;;;11.74;47.51
48614;BME280;34408;51.426;5.444;2023-05-03T07:05:35;102817.97;;;11.76;47.84
48614;BME280;34408;51.426;5.444;2023-05-03T07:08:03;102814.09;;;11.78;47.73
48614;BME280;34408;51.426;5.444;2023-05-03T07:10:33;102824.88;;;11.78;47.72
48614;BME280;34408;51.426;5.444;2023-05-03T07:13:01;102830.09;;;11.80;47.98
48614;BME280;34408;51.426;5.444;2023-05-03T07:15:30;102825.34;;;11.82;47.94
48614;BME280;34408;51.426;5.444;2023-05-03T07:17:57;102829.34;;;11.86;47.65
48614;BME280;34408;51.426;5.444;2023-05-03T07:20:26;102825.66;;;11.87;47.73
48614;BME280;34408;51.426;5.444;2023-05-03T07:22:54;102822.94;;;11.87;47.60
48614;BME280;34408;51.426;5.444;2023-05-03T07:25:22;102821.75;;;11.89;47.43
48614;BME280;34408;51.426;5.444;2023-05-03T07:27:52;102826.13;;;11.90;47.87
48614;BME280;34408;51.426;5.444;2023-05-03T07:30:20;102824.06;;;11.92;47.90
48614;BME280;34408;51.426;5.444;2023-05-03T07:32:48;102827.78;;;11.91;48.09
48614;BME280;34408;51.426;5.444;2023-05-03T07:35:16;102824.06;;;11.92;48.14
48614;BME280;34408;51.426;5.444;2023-05-03T07:37:44;102826.41;;;11.95;48.04
48614;BME280;34408;51.426;5.444;2023-05-03T07:40:12;102816.47;;;11.96;47.97
48614;BME280;34408;51.426;5.444;2023-05-03T07:42:40;102806.34;;;11.98;47.98
48614;BME280;34408;51.426;5.444;2023-05-03T07:45:09;102808.03;;;11.99;47.92
48614;BME280;34408;51.426;5.444;2023-05-03T07:47:40;102805.13;;;12.00;48.15
48614;BME280;34408;51.426;5.444;2023-05-03T07:50:09;102804.97;;;12.02;48.15
48614;BME280;34408;51.426;5.444;2023-05-03T07:52:37;102809.13;;;12.04;48.53
48614;BME280;34408;51.426;5.444;2023-05-03T07:55:06;102808.31;;;12.04;48.29
48614;BME280;34408;51.426;5.444;2023-05-03T07:57:34;102804.22;;;12.08;48.56
48614;BME280;34408;51.426;5.444;2023-05-03T08:00:02;102795.97;;;12.10;48.56
48614;BME280;34408;51.426;5.444;2023-05-03T08:02:33;102799.50;;;12.10;48.44
48614;BME280;34408;51.426;5.444;2023-05-03T08:05:01;102793.06;;;12.11;48.70
48614;BME280;34408;51.426;5.444;2023-05-03T08:07:31;102788.34;;;12.13;48.56
48614;BME280;34408;51.426;5.444;2023-05-03T08:09:59;102786.72;;;12.19;48.16
48614;BME280;34408;51.426;5.444;2023-05-03T08:12:28;102782.44;;;12.24;48.18
48614;BME280;34408;51.426;5.444;2023-05-03T08:14:56;102766.56;;;12.44;47.83
48614;BME280;34408;51.426;5.444;2023-05-03T08:17:23;102762.16;;;12.73;46.87
48614;BME280;34408;51.426;5.444;2023-05-03T08:19:55;102765.34;;;12.97;46.41
48614;BME280;34408;51.426;5.444;2023-05-03T08:22:23;102755.31;;;13.27;45.66
48614;BME280;34408;51.426;5.444;2023-05-03T08:24:52;102758.25;;;13.54;45.19
48614;BME280;34408;51.426;5.444;2023-05-03T08:27:21;102764.50;;;13.82;45.10
48614;BME280;34408;51.426;5.444;2023-05-03T08:29:51;102755.47;;;14.03;44.33
48614;BME280;34408;51.426;5.444;2023-05-03T08:32:18;102758.41;;;14.08;44.11
48614;BME280;34408;51.426;5.444;2023-05-03T08:34:48;102754.63;;;14.02;44.61
48614;BME280;34408;51.426;5.444;2023-05-03T08:37:17;102756.41;;;13.82;44.87
48614;BME280;34408;51.426;5.444;2023-05-03T08:39:45;102752.94;;;13.67;45.34
48614;BME280;34408;51.426;5.444;2023-05-03T08:42:14;102752.34;;;13.44;46.12
48614;BME280;34408;51.426;5.444;2023-05-03T08:44:44;102756.13;;;13.28;46.59
48614;BME280;34408;51.426;5.444;2023-05-03T08:47:13;102754.78;;;13.17;47.07
48614;BME280;34408;51.426;5.444;2023-05-03T08:49:42;102752.81;;;13.11;47.11
48614;BME280;34408;51.426;5.444;2023-05-03T08:52:11;102747.63;;;13.10;47.81
48614;BME280;34408;51.426;5.444;2023-05-03T08:54:42;102749.22;;;13.04;47.35
48614;BME280;34408;51.426;5.444;2023-05-03T08:57:13;102748.13;;;12.98;47.92
48614;BME280;34408;51.426;5.444;2023-05-03T08:59:47;102755.13;;;12.93;48.01
48614;BME280;34408;51.426;5.444;2023-05-03T09:02:16;102762.56;;;12.91;47.61
48614;BME280;34408;51.426;5.444;2023-05-03T09:04:44;102779.13;;;12.88;47.74
48614;BME280;34408;51.426;5.444;2023-05-03T09:07:12;102766.22;;;12.83;47.65
48614;BME280;34408;51.426;5.444;2023-05-03T09:09:42;102767.88;;;12.84;48.04
48614;BME280;34408;51.426;5.444;2023-05-03T09:12:32;102772.44;;;12.84;48.32
48614;BME280;34408;51.426;5.444;2023-05-03T09:15:00;102762.50;;;12.84;48.39
48614;BME280;34408;51.426;5.444;2023-05-03T09:17:29;102759.59;;;12.86;48.44
48614;BME280;34408;51.426;5.444;2023-05-03T09:19:58;102754.00;;;12.87;48.82
48614;BME280;34408;51.426;5.444;2023-05-03T09:22:30;102760.25;;;12.88;48.73
48614;BME280;34408;51.426;5.444;2023-05-03T09:25:00;102768.34;;;12.88;48.73
48614;BME280;34408;51.426;5.444;2023-05-03T09:27:29;102763.59;;;12.90;48.97
48614;BME280;34408;51.426;5.444;2023-05-03T09:30:16;102755.94;;;12.93;48.61
48614;BME280;34408;51.426;5.444;2023-05-03T09:32:48;102753.06;;;12.95;48.95
48614;BME280;34408;51.426;5.444;2023-05-03T09:35:15;102753.72;;;12.97;48.95
48614;BME280;34408;51.426;5.444;2023-05-03T09:37:43;102756.53;;;13.10;49.55
48614;BME280;34408;51.426;5.444;2023-05-03T09:40:14;102743.25;;;13.09;49.00
48614;BME280;34408;51.426;5.444;2023-05-03T09:43:04;102738.88;;;13.08;48.95
48614;BME280;34408;51.426;5.444;2023-05-03T09:45:33;102753.22;;;13.08;48.93
48614;BME280;34408;51.426;5.444;2023-05-03T09:48:02;102751.53;;;13.07;49.02
48614;BME280;34408;51.426;5.444;2023-05-03T09:50:31;102749.47;;;13.09;48.68
48614;BME280;34408;51.426;5.444;2023-05-03T09:53:03;102740.53;;;13.09;47.90
48614;BME280;34408;51.426;5.444;2023-05-03T09:55:33;102743.63;;;13.06;47.83
48614;BME280;34408;51.426;5.444;2023-05-03T09:58:02;102734.88;;;13.03;48.21
48614;BME280;34408;51.426;5.444;2023-05-03T10:00:35;102737.19;;;13.07;47.85
48614;BME280;34408;51.426;5.444;2023-05-03T10:03:06;102735.53;;;13.06;47.73
48614;BME280;34408;51.426;5.444;2023-05-03T10:05:40;102737.66;;;13.10;48.41
48614;BME280;34408;51.426;5.444;2023-05-03T10:08:13;102734.56;;;13.13;49.14
48614;BME280;34408;51.426;5.444;2023-05-03T10:10:45;102728.63;;;13.18;49.20
48614;BME280;34408;51.426;5.444;2023-05-03T10:13:19;102719.75;;;13.24;48.87
48614;BME280;34408;51.426;5.444;2023-05-03T10:15:48;102725.78;;;13.26;49.27
48614;BME280;34408;51.426;5.444;2023-05-03T10:18:19;102718.97;;;13.30;49.07
48614;BME280;34408;51.426;5.444;2023-05-03T10:20:51;102726.03;;;13.31;48.47
48614;BME280;34408;51.426;5.444;2023-05-03T10:23:22;102732.09;;;13.33;48.96
48614;BME280;34408;51.426;5.444;2023-05-03T10:26:14;102722.13;;;13.33;46.97
48614;BME280;34408;51.426;5.444;2023-05-03T10:28:43;102716.91;;;13.32;46.49
48614;BME280;34408;51.426;5.444;2023-05-03T10:31:42;102727.06;;;13.30;46.66
48614;BME280;34408;51.426;5.444;2023-05-03T10:34:29;102724.38;;;13.30;46.98
48614;BME280;34408;51.426;5.444;2023-05-03T10:37:00;102724.03;;;13.40;49.29
48614;BME280;34408;51.426;5.444;2023-05-03T10:39:29;102728.47;;;13.47;50.11
48614;BME280;34408;51.426;5.444;2023-05-03T10:42:01;102732.25;;;13.53;49.36
48614;BME280;34408;51.426;5.444;2023-05-03T10:44:34;102722.53;;;13.58;48.50
48614;BME280;34408;51.426;5.444;2023-05-03T10:47:12;102722.16;;;13.61;47.96
48614;BME280;34408;51.426;5.444;2023-05-03T10:49:40;102726.53;;;13.62;47.33
48614;BME280;34408;51.426;5.444;2023-05-03T10:52:46;102723.63;;;13.64;47.77
48614;BME280;34408;51.426;5.444;2023-05-03T10:55:16;102722.19;;;13.68;48.52
48614;BME280;34408;51.426;5.444;2023-05-03T10:57:48;102732.81;;;13.70;47.45
48614;BME280;34408;51.426;5.444;2023-05-03T11:00:19;102733.25;;;13.73;47.81
48614;BME280;34408;51.426;5.444;2023-05-03T11:03:07;102723.09;;;13.75;46.68
48614;BME280;34408;51.426;5.444;2023-05-03T11:05:37;102725.59;;;13.77;46.60
48614;BME280;34408;51.426;5.444;2023-05-03T11:08:10;102723.31;;;13.80;47.80
48614;BME280;34408;51.426;5.444;2023-05-03T11:10:39;102719.41;;;13.89;47.96
48614;BME280;34408;51.426;5.444;2023-05-03T11:13:08;102715.72;;;13.97;47.78
48614;BME280;34408;51.426;5.444;2023-05-03T11:15:36;102714.72;;;14.05;48.07
48614;BME280;34408;51.426;5.444;2023-05-03T11:18:05;102699.78;;;14.09;47.36
48614;BME280;34408;51.426;5.444;2023-05-03T11:20:34;102687.31;;;14.14;47.20
48614;BME280;34408;51.426;5.444;2023-05-03T11:23:02;102684.00;;;14.19;47.88
48614;BME280;34408;51.426;5.444;2023-05-03T11:25:30;102694.44;;;14.22;47.26
48614;BME280;34408;51.426;5.444;2023-05-03T11:27:59;102697.13;;;14.22;47.42
48614;BME280;34408;51.426;5.444;2023-05-03T11:30:32;102683.00;;;14.26;47.73
48614;BME280;34408;51.426;5.444;2023-05-03T11:33:01;102683.03;;;14.33;47.74
48614;BME280;34408;51.426;5.444;2023-05-03T11:35:29;102687.63;;;14.39;47.57
48614;BME280;34408;51.426;5.444;2023-05-03T11:37:57;102686.59;;;14.40;46.06
48614;BME280;34408;51.426;5.444;2023-05-03T11:40:25;102684.72;;;14.41;46.23
48614;BME280;34408;51.426;5.444;2023-05-03T11:42:54;102679.53;;;14.39;45.67
48614;BME280;34408;51.426;5.444;2023-05-03T11:45:25;102676.81;;;14.39;45.95
48614;BME280;34408;51.426;5.444;2023-05-03T11:47:55;102678.94;;;14.44;46.73
48614;BME280;34408;51.426;5.444;2023-05-03T11:50:41;102672.94;;;14.48;46.94
48614;BME280;34408;51.426;5.444;2023-05-03T11:53:09;102671.06;;;14.55;46.75
48614;BME280;34408;51.426;5.444;2023-05-03T11:55:40;102669.44;;;14.61;46.14
48614;BME280;34408;51.426;5.444;2023-05-03T11:58:12;102662.56;;;14.65;45.47
48614;BME280;34408;51.426;5.444;2023-05-03T12:00:42;102652.13;;;14.55;44.94
48614;BME280;34408;51.426;5.444;2023-05-03T12:03:15;102658.19;;;14.64;45.12
48614;BME280;34408;51.426;5.444;2023-05-03T12:05:44;102643.84;;;14.63;45.60
48614;BME280;34408;51.426;5.444;2023-05-03T12:08:14;102646.97;;;14.74;45.95
48614;BME280;34408;51.426;5.444;2023-05-03T12:10:47;102643.25;;;14.81;46.51
48614;BME280;34408;51.426;5.444;2023-05-03T12:13:26;102642.00;;;14.90;46.88
48614;BME280;34408;51.426;5.444;2023-05-03T12:15:56;102637.44;;;14.97;46.59
48614;BME280;34408;51.426;5.444;2023-05-03T12:18:46;102622.66;;;15.07;47.37
48614;BME280;34408;51.426;5.444;2023-05-03T12:21:16;102625.78;;;15.10;46.50
48614;BME280;34408;51.426;5.444;2023-05-03T12:23:47;102628.47;;;15.17;46.68
48614;BME280;34408;51.426;5.444;2023-05-03T12:26:17;102633.06;;;15.23;46.62
48614;BME280;34408;51.426;5.444;2023-05-03T12:28:47;102624.31;;;15.34;45.90
48614;BME280;34408;51.426;5.444;2023-05-03T12:31:15;102627.84;;;15.35;44.98
48614;BME280;34408;51.426;5.444;2023-05-03T12:33:45;102616.16;;;15.34;45.20
48614;BME280;34408;51.426;5.444;2023-05-03T12:36:33;102615.72;;;15.50;46.12
48614;BME280;34408;51.426;5.444;2023-05-03T12:39:03;102602.19;;;15.57;46.42
48614;BME280;34408;51.426;5.444;2023-05-03T12:41:35;102598.44;;;15.58;45.64
48614;BME280;34408;51.426;5.444;2023-05-03T12:44:06;102590.50;;;15.56;45.15
48614;BME280;34408;51.426;5.444;2023-05-03T12:46:36;102579.47;;;15.58;45.42
48614;BME280;34408;51.426;5.444;2023-05-03T12:49:06;102578.19;;;15.54;45.51
48614;BME280;34408;51.426;5.444;2023-05-03T12:51:34;102565.28;;;15.56;45.29
48614;BME280;34408;51.426;5.444;2023-05-03T12:54:08;102565.09;;;15.57;45.48
48614;BME280;34408;51.426;5.444;2023-05-03T12:56:37;102572.19;;;15.58;45.40
48614;BME280;34408;51.426;5.444;2023-05-03T12:59:07;102560.84;;;15.75;45.51
48614;BME280;34408;51.426;5.444;2023-05-03T13:01:37;102570.44;;;15.71;45.53
48614;BME280;34408;51.426;5.444;2023-05-03T13:04:09;102564.41;;;15.69;45.10